PST,Max TemperatureF,Mean TemperatureF,Min TemperatureF,Max Dew PointF,MeanDew PointF,Min DewpointF,Max Humidity, Mean Humidity, Min Humidity, Max Sea Level PressureIn, Mean Sea Level PressureIn, Min Sea Level PressureIn, Max VisibilityMiles, Mean VisibilityMiles, Min VisibilityMiles, Max Wind SpeedMPH, Mean Wind SpeedMPH, Max Gust SpeedMPH,PrecipitationIn, CloudCover, Events, WindDirDegrees
2013-12-1,51,46,39,52,48,39,100,100,100,30.02,29.80,29.71,10,9,4,18,10,25,0.01,4,Rain,196
2013-12-2,42,38,33,43,38,34,100,100,100,30.14,29.90,29.76,10,10,7,15,7,29,0.00,5,Rain-Snow,189
2013-12-3,37,34,32,34,23,14,100,69,38,30.35,30.28,30.15,10,10,10,15,11,28,0.00,0,,44
2013-12-4,35,32,30,16,11,7,51,42,32,30.37,30.34,30.32,10,10,10,12,8,22,0.00,0,,72
2013-12-5,33,30,26,21,16,9,74,56,40,30.34,30.25,30.21,10,10,8,12,3,28,0.00,2,,66
2013-12-6,28,26,23,10,4,0,47,40,34,30.34,30.27,30.22,10,10,10,18,11,32,0.00,0,,53
2013-12-7,28,24,19,9,3,0,63,42,29,30.41,30.38,30.32,10,10,9,17,9,30,0.00,0,,55
2013-12-8,32,26,19,23,17,10,86,66,51,30.55,30.49,30.40,10,10,9,6,1,,0.00,3,,182
2013-12-9,33,32,32,28,23,19,81,70,60,30.55,30.51,30.45,10,10,10,13,6,16,0.00,7,,178
2013-12-10,37,35,33,32,32,28,87,84,81,30.47,30.44,30.42,10,10,9,10,6,,0.00,7,,163
2013-12-11,41,36,32,34,32,30,100,83,70,30.42,30.30,30.14,10,10,7,7,1,,0.00,2,,66
2013-12-12,44,38,32,41,35,30,100,87,70,30.15,30.04,29.97,10,9,3,15,3,22,0.00,4,Rain,178
2013-12-13,46,44,42,45,43,41,100,95,87,30.41,30.28,30.10,10,8,2,12,7,16,0.00,7,Rain,188
2013-12-14,46,45,44,45,44,43,100,92,87,30.41,30.33,30.28,10,9,2,14,6,23,0.00,6,Rain,183
2013-12-15,50,44,39,46,43,37,100,92,82,30.42,30.32,30.26,10,9,2,17,11,22,0.00,4,Rain,193
2013-12-16,48,42,35,43,39,36,100,92,76,30.47,30.40,30.26,10,8,2,9,2,,0.00,1,,186
2013-12-17,44,38,33,41,39,34,100,95,87,30.26,30.13,30.06,10,8,2,18,5,24,0.00,6,,188
2013-12-18,46,40,35,41,32,18,93,70,42,30.23,30.08,30.03,10,10,3,13,8,25,0.00,3,Rain,317
2013-12-19,39,36,32,32,21,14,100,55,38,30.36,30.28,30.18,10,10,3,12,5,23,0.00,1,Snow,61
2013-12-20,37,34,32,37,34,32,100,97,87,30.18,29.87,29.70,10,3,1,15,6,26,0.04,8,Rain-Snow,176
2013-12-21,41,38,35,39,38,36,100,97,87,30.16,30.07,29.87,10,7,3,4,1,,0.00,8,Rain,74
2013-12-22,46,42,39,46,41,37,100,100,93,30.28,30.23,30.15,10,3,1,9,4,,0.08,8,Rain,95
2013-12-23,50,44,35,46,42,36,100,86,58,30.49,30.20,30.07,10,9,2,17,8,25,0.02,3,Rain,205
2013-12-24,44,38,32,39,35,32,100,92,66,30.59,30.56,30.49,10,9,2,6,0,,0.00,2,,210
2013-12-25,42,37,32,39,35,32,100,92,81,30.54,30.45,30.39,10,9,1,4,0,,0.00,5,Rain,90
2013-12-26,46,39,32,41,38,32,100,93,76,30.39,30.30,30.19,10,9,4,5,1,,0.00,3,Rain,113
2013-12-27,48,40,32,45,40,32,100,95,81,30.34,30.16,30.04,10,8,3,18,4,25,0.08,3,Rain,190
2013-12-28,44,40,35,41,39,36,100,95,81,30.52,30.47,30.34,10,9,3,5,1,,0.00,5,,309
2013-12-29,44,40,35,41,39,36,100,94,81,30.47,30.38,30.31,10,10,4,14,3,18,0.00,5,Rain,183
2013-12-30,44,42,39,41,40,39,100,91,81,30.31,30.18,30.09,10,10,5,14,2,17,0.00,5,Rain,186
2013-12-31,46,42,39,45,43,39,100,98,87,30.38,30.26,30.15,10,5,0,13,6,18,0.00,8,Fog-Rain,188